sensor_id;sensor_type;location;lat;lon;timestamp;temperature;humidity
68189;DHT22;55008;47.514;19.218;2022-07-23T00:00:59;22.53;62.64
68189;DHT22;55008;47.514;19.218;2022-07-23T00:03:29;22.52;63.26
68189;DHT22;55008;47.514;19.218;2022-07-23T00:06:00;22.48;63.32
68189;DHT22;55008;47.514;19.218;2022-07-23T00:08:35;22.41;64.12
68189;DHT22;55008;47.514;19.218;2022-07-23T00:11:04;22.41;63.65
68189;DHT22;55008;47.514;19.218;2022-07-23T00:13:32;22.34;63.55
68189;DHT22;55008;47.514;19.218;2022-07-23T00:16:07;22.27;64.93
68189;DHT22;55008;47.514;19.218;2022-07-23T00:18:36;22.14;65.65
68189;DHT22;55008;47.514;19.218;2022-07-23T00:21:06;22.09;65.44
68189;DHT22;55008;47.514;19.218;2022-07-23T00:23:35;22.08;65.64
68189;DHT22;55008;47.514;19.218;2022-07-23T00:26:04;22.09;64.52
68189;DHT22;55008;47.514;19.218;2022-07-23T00:28:34;22.15;64.22
68189;DHT22;55008;47.514;19.218;2022-07-23T00:31:05;22.22;63.89
68189;DHT22;55008;47.514;19.218;2022-07-23T00:33:34;22.21;64.71
68189;DHT22;55008;47.514;19.218;2022-07-23T00:36:02;22.17;64.83
68189;DHT22;55008;47.514;19.218;2022-07-23T00:38:32;22.25;65.34
68189;DHT22;55008;47.514;19.218;2022-07-23T00:41:00;22.17;66.09
68189;DHT22;55008;47.514;19.218;2022-07-23T00:43:31;22.05;66.00
68189;DHT22;55008;47.514;19.218;2022-07-23T00:46:00;22.01;65.77
68189;DHT22;55008;47.514;19.218;2022-07-23T00:48:30;21.98;64.84
68189;DHT22;55008;47.514;19.218;2022-07-23T00:50:59;21.93;65.38
68189;DHT22;55008;47.514;19.218;2022-07-23T00:53:28;21.88;65.47
68189;DHT22;55008;47.514;19.218;2022-07-23T00:55:59;21.84;66.12
68189;DHT22;55008;47.514;19.218;2022-07-23T00:58:28;21.78;66.81
68189;DHT22;55008;47.514;19.218;2022-07-23T01:00:58;21.81;67.12
68189;DHT22;55008;47.514;19.218;2022-07-23T01:03:28;21.73;66.85
68189;DHT22;55008;47.514;19.218;2022-07-23T01:06:02;21.67;66.69
68189;DHT22;55008;47.514;19.218;2022-07-23T01:08:32;21.63;67.08
68189;DHT22;55008;47.514;19.218;2022-07-23T01:11:02;21.63;66.42
68189;DHT22;55008;47.514;19.218;2022-07-23T01:13:30;21.61;66.54
68189;DHT22;55008;47.514;19.218;2022-07-23T01:15:59;21.57;66.68
68189;DHT22;55008;47.514;19.218;2022-07-23T01:18:28;21.57;66.35
68189;DHT22;55008;47.514;19.218;2022-07-23T01:20:56;21.54;67.14
68189;DHT22;55008;47.514;19.218;2022-07-23T01:23:29;21.56;67.11
68189;DHT22;55008;47.514;19.218;2022-07-23T01:25:58;21.47;67.67
68189;DHT22;55008;47.514;19.218;2022-07-23T01:28:26;21.43;68.12
68189;DHT22;55008;47.514;19.218;2022-07-23T01:30:56;21.43;68.33
68189;DHT22;55008;47.514;19.218;2022-07-23T01:33:24;21.38;68.69
68189;DHT22;55008;47.514;19.218;2022-07-23T01:35:53;21.28;69.80
68189;DHT22;55008;47.514;19.218;2022-07-23T01:38:21;21.26;69.66
68189;DHT22;55008;47.514;19.218;2022-07-23T01:40:52;21.26;69.34
68189;DHT22;55008;47.514;19.218;2022-07-23T01:43:23;21.23;68.90
68189;DHT22;55008;47.514;19.218;2022-07-23T01:45:57;21.25;69.53
68189;DHT22;55008;47.514;19.218;2022-07-23T01:48:28;21.19;70.18
68189;DHT22;55008;47.514;19.218;2022-07-23T01:50:58;21.11;70.22
68189;DHT22;55008;47.514;19.218;2022-07-23T01:53:27;21.03;70.79
68189;DHT22;55008;47.514;19.218;2022-07-23T01:56:00;20.98;70.70
68189;DHT22;55008;47.514;19.218;2022-07-23T01:58:30;20.94;70.83
68189;DHT22;55008;47.514;19.218;2022-07-23T02:01:00;20.91;71.40
68189;DHT22;55008;47.514;19.218;2022-07-23T02:03:28;20.87;71.45
68189;DHT22;55008;47.514;19.218;2022-07-23T02:05:57;20.84;71.76
68189;DHT22;55008;47.514;19.218;2022-07-23T02:08:26;20.82;71.83
68189;DHT22;55008;47.514;19.218;2022-07-23T02:10:56;20.73;71.54
68189;DHT22;55008;47.514;19.218;2022-07-23T02:13:28;20.71;71.27
68189;DHT22;55008;47.514;19.218;2022-07-23T02:16:00;20.65;71.45
68189;DHT22;55008;47.514;19.218;2022-07-23T02:18:30;20.67;71.23
68189;DHT22;55008;47.514;19.218;2022-07-23T02:20:59;20.65;71.06
68189;DHT22;55008;47.514;19.218;2022-07-23T02:23:29;20.67;70.54
68189;DHT22;55008;47.514;19.218;2022-07-23T02:25:58;20.65;70.52
68189;DHT22;55008;47.514;19.218;2022-07-23T02:28:32;20.75;71.86
68189;DHT22;55008;47.514;19.218;2022-07-23T02:31:00;20.80;71.56
68189;DHT22;55008;47.514;19.218;2022-07-23T02:33:29;20.71;71.94
68189;DHT22;55008;47.514;19.218;2022-07-23T02:35:58;20.64;72.00
68189;DHT22;55008;47.514;19.218;2022-07-23T02:38:27;20.55;72.48
68189;DHT22;55008;47.514;19.218;2022-07-23T02:40:57;20.41;72.11
68189;DHT22;55008;47.514;19.218;2022-07-23T02:43:25;20.32;73.62
68189;DHT22;55008;47.514;19.218;2022-07-23T02:45:57;20.25;73.69
68189;DHT22;55008;47.514;19.218;2022-07-23T02:48:26;20.22;73.40
68189;DHT22;55008;47.514;19.218;2022-07-23T02:50:54;20.20;73.39
68189;DHT22;55008;47.514;19.218;2022-07-23T02:53:23;20.20;73.51
68189;DHT22;55008;47.514;19.218;2022-07-23T02:55:52;20.20;72.86
68189;DHT22;55008;47.514;19.218;2022-07-23T02:58:22;20.20;73.47
68189;DHT22;55008;47.514;19.218;2022-07-23T03:00:52;20.20;73.31
68189;DHT22;55008;47.514;19.218;2022-07-23T03:03:22;20.22;73.12
68189;DHT22;55008;47.514;19.218;2022-07-23T03:05:56;20.17;72.79
68189;DHT22;55008;47.514;19.218;2022-07-23T03:08:25;20.13;72.85
68189;DHT22;55008;47.514;19.218;2022-07-23T03:10:53;20.13;72.45
68189;DHT22;55008;47.514;19.218;2022-07-23T03:13:22;20.15;72.92
68189;DHT22;55008;47.514;19.218;2022-07-23T03:15:52;20.13;73.46
68189;DHT22;55008;47.514;19.218;2022-07-23T03:18:23;20.13;73.49
68189;DHT22;55008;47.514;19.218;2022-07-23T03:20:51;20.15;73.69
68189;DHT22;55008;47.514;19.218;2022-07-23T03:23:20;20.09;73.79
68189;DHT22;55008;47.514;19.218;2022-07-23T03:25:48;20.09;73.72
68189;DHT22;55008;47.514;19.218;2022-07-23T03:28:20;20.13;73.47
68189;DHT22;55008;47.514;19.218;2022-07-23T03:30:49;20.17;72.70
68189;DHT22;55008;47.514;19.218;2022-07-23T03:33:19;20.27;71.48
68189;DHT22;55008;47.514;19.218;2022-07-23T03:35:49;20.30;71.88
68189;DHT22;55008;47.514;19.218;2022-07-23T03:38:20;20.47;72.08
68189;DHT22;55008;47.514;19.218;2022-07-23T03:40:49;20.60;71.64
68189;DHT22;55008;47.514;19.218;2022-07-23T03:43:18;20.68;72.00
68189;DHT22;55008;47.514;19.218;2022-07-23T03:45:49;20.63;70.59
68189;DHT22;55008;47.514;19.218;2022-07-23T03:48:18;20.61;70.92
68189;DHT22;55008;47.514;19.218;2022-07-23T03:50:48;20.65;70.37
68189;DHT22;55008;47.514;19.218;2022-07-23T03:53:18;20.75;70.50
68189;DHT22;55008;47.514;19.218;2022-07-23T03:55:46;20.84;70.71
68189;DHT22;55008;47.514;19.218;2022-07-23T03:58:17;20.94;70.64
68189;DHT22;55008;47.514;19.218;2022-07-23T04:00:46;21.06;69.92
68189;DHT22;55008;47.514;19.218;2022-07-23T04:03:16;21.18;70.32
68189;DHT22;55008;47.514;19.218;2022-07-23T04:05:45;21.32;70.22
68189;DHT22;55008;47.514;19.218;2022-07-23T04:08:16;21.56;70.12
68189;DHT22;55008;47.514;19.218;2022-07-23T04:10:46;21.66;70.15
68189;DHT22;55008;47.514;19.218;2022-07-23T04:13:14;21.71;70.11
68189;DHT22;55008;47.514;19.218;2022-07-23T04:15:43;21.81;69.03
68189;DHT22;55008;47.514;19.218;2022-07-23T04:18:14;21.86;68.63
68189;DHT22;55008;47.514;19.218;2022-07-23T04:20:44;21.90;68.35
68189;DHT22;55008;47.514;19.218;2022-07-23T04:23:16;21.98;68.09
68189;DHT22;55008;47.514;19.218;2022-07-23T04:25:46;22.12;67.74
68189;DHT22;55008;47.514;19.218;2022-07-23T04:28:18;22.22;67.56
68189;DHT22;55008;47.514;19.218;2022-07-23T04:30:48;22.27;67.48
68189;DHT22;55008;47.514;19.218;2022-07-23T04:33:16;22.36;67.43
68189;DHT22;55008;47.514;19.218;2022-07-23T04:35:46;22.45;67.39
68189;DHT22;55008;47.514;19.218;2022-07-23T04:38:17;22.53;67.78
68189;DHT22;55008;47.514;19.218;2022-07-23T04:40:46;22.56;68.58
68189;DHT22;55008;47.514;19.218;2022-07-23T04:43:14;22.60;68.53
68189;DHT22;55008;47.514;19.218;2022-07-23T04:45:43;22.62;68.91
68189;DHT22;55008;47.514;19.218;2022-07-23T04:48:12;22.60;68.67
68189;DHT22;55008;47.514;19.218;2022-07-23T04:50:45;22.62;68.91
68189;DHT22;55008;47.514;19.218;2022-07-23T04:53:14;22.72;68.31
68189;DHT22;55008;47.514;19.218;2022-07-23T04:55:43;22.83;67.80
68189;DHT22;55008;47.514;19.218;2022-07-23T04:58:12;22.99;67.15
68189;DHT22;55008;47.514;19.218;2022-07-23T05:00:41;23.13;66.56
68189;DHT22;55008;47.514;19.218;2022-07-23T05:03:11;23.14;66.39
68189;DHT22;55008;47.514;19.218;2022-07-23T05:05:42;23.18;66.45
68189;DHT22;55008;47.514;19.218;2022-07-23T05:08:12;23.23;65.83
68189;DHT22;55008;47.514;19.218;2022-07-23T05:10:40;23.21;66.09
68189;DHT22;55008;47.514;19.218;2022-07-23T05:13:10;23.32;64.85
68189;DHT22;55008;47.514;19.218;2022-07-23T05:15:40;23.40;64.42
68189;DHT22;55008;47.514;19.218;2022-07-23T05:18:09;23.47;65.36
68189;DHT22;55008;47.514;19.218;2022-07-23T05:20:39;23.59;64.12
68189;DHT22;55008;47.514;19.218;2022-07-23T05:23:09;23.72;62.99
68189;DHT22;55008;47.514;19.218;2022-07-23T05:25:39;23.90;62.45
68189;DHT22;55008;47.514;19.218;2022-07-23T05:28:10;24.10;61.36
68189;DHT22;55008;47.514;19.218;2022-07-23T05:30:40;24.19;61.38
68189;DHT22;55008;47.514;19.218;2022-07-23T05:33:11;24.31;60.72
68189;DHT22;55008;47.514;19.218;2022-07-23T05:35:41;24.53;61.16
68189;DHT22;55008;47.514;19.218;2022-07-23T05:38:11;24.61;59.55
68189;DHT22;55008;47.514;19.218;2022-07-23T05:40:41;24.79;59.93
68189;DHT22;55008;47.514;19.218;2022-07-23T05:43:11;24.89;59.06
68189;DHT22;55008;47.514;19.218;2022-07-23T05:45:40;25.01;57.04
68189;DHT22;55008;47.514;19.218;2022-07-23T05:48:09;25.16;55.46
68189;DHT22;55008;47.514;19.218;2022-07-23T05:50:37;25.34;55.63
68189;DHT22;55008;47.514;19.218;2022-07-23T05:53:05;25.54;54.22
68189;DHT22;55008;47.514;19.218;2022-07-23T05:55:34;25.69;52.43
68189;DHT22;55008;47.514;19.218;2022-07-23T05:58:02;25.81;52.72
68189;DHT22;55008;47.514;19.218;2022-07-23T06:00:32;26.02;52.77
68189;DHT22;55008;47.514;19.218;2022-07-23T06:03:01;26.05;51.88
68189;DHT22;55008;47.514;19.218;2022-07-23T06:05:30;26.11;51.91
68189;DHT22;55008;47.514;19.218;2022-07-23T06:07:59;26.22;51.12
68189;DHT22;55008;47.514;19.218;2022-07-23T06:10:27;26.32;51.51
68189;DHT22;55008;47.514;19.218;2022-07-23T06:12:58;26.56;50.67
68189;DHT22;55008;47.514;19.218;2022-07-23T06:15:29;26.66;52.32
68189;DHT22;55008;47.514;19.218;2022-07-23T06:17:59;26.86;50.65
68189;DHT22;55008;47.514;19.218;2022-07-23T06:20:27;27.07;49.99
68189;DHT22;55008;47.514;19.218;2022-07-23T06:22:55;27.28;49.53
68189;DHT22;55008;47.514;19.218;2022-07-23T06:25:26;27.41;48.13
68189;DHT22;55008;47.514;19.218;2022-07-23T06:27:55;27.48;49.50
68189;DHT22;55008;47.514;19.218;2022-07-23T06:30:24;27.72;48.55
68189;DHT22;55008;47.514;19.218;2022-07-23T06:32:54;27.88;48.75
68189;DHT22;55008;47.514;19.218;2022-07-23T06:35:24;27.96;48.52
68189;DHT22;55008;47.514;19.218;2022-07-23T06:37:53;28.14;46.56
68189;DHT22;55008;47.514;19.218;2022-07-23T06:40:23;28.27;47.47
68189;DHT22;55008;47.514;19.218;2022-07-23T06:42:52;28.44;46.84
68189;DHT22;55008;47.514;19.218;2022-07-23T06:45:25;28.67;44.82
68189;DHT22;55008;47.514;19.218;2022-07-23T06:47:54;28.88;44.26
68189;DHT22;55008;47.514;19.218;2022-07-23T06:50:24;28.99;44.45
68189;DHT22;55008;47.514;19.218;2022-07-23T06:52:52;29.12;44.49
68189;DHT22;55008;47.514;19.218;2022-07-23T06:55:22;29.25;43.79
68189;DHT22;55008;47.514;19.218;2022-07-23T06:57:53;29.36;44.40
68189;DHT22;55008;47.514;19.218;2022-07-23T07:00:22;29.51;43.69
68189;DHT22;55008;47.514;19.218;2022-07-23T07:02:50;29.77;43.84
68189;DHT22;55008;47.514;19.218;2022-07-23T07:05:18;29.94;43.37
68189;DHT22;55008;47.514;19.218;2022-07-23T07:07:50;30.06;44.20
68189;DHT22;55008;47.514;19.218;2022-07-23T07:10:19;30.16;44.63
68189;DHT22;55008;47.514;19.218;2022-07-23T07:12:47;30.26;44.03
68189;DHT22;55008;47.514;19.218;2022-07-23T07:15:18;30.39;42.30
68189;DHT22;55008;47.514;19.218;2022-07-23T07:17:47;30.60;42.46
68189;DHT22;55008;47.514;19.218;2022-07-23T07:20:16;30.76;42.92
68189;DHT22;55008;47.514;19.218;2022-07-23T07:22:44;30.84;41.82
68189;DHT22;55008;47.514;19.218;2022-07-23T07:25:14;30.95;41.17
68189;DHT22;55008;47.514;19.218;2022-07-23T07:27:43;31.02;41.44
68189;DHT22;55008;47.514;19.218;2022-07-23T07:30:12;31.15;42.70
68189;DHT22;55008;47.514;19.218;2022-07-23T07:32:43;31.12;42.57
68189;DHT22;55008;47.514;19.218;2022-07-23T07:35:28;31.29;40.09
68189;DHT22;55008;47.514;19.218;2022-07-23T07:37:56;31.43;40.13
68189;DHT22;55008;47.514;19.218;2022-07-23T07:40:27;31.66;41.43
68189;DHT22;55008;47.514;19.218;2022-07-23T07:43:00;31.67;41.06
68189;DHT22;55008;47.514;19.218;2022-07-23T07:45:29;31.86;38.20
68189;DHT22;55008;47.514;19.218;2022-07-23T07:47:59;31.97;37.94
68189;DHT22;55008;47.514;19.218;2022-07-23T07:50:28;32.14;38.98
68189;DHT22;55008;47.514;19.218;2022-07-23T07:52:59;32.34;37.94
68189;DHT22;55008;47.514;19.218;2022-07-23T07:55:29;32.42;36.33
68189;DHT22;55008;47.514;19.218;2022-07-23T07:57:58;32.51;36.72
68189;DHT22;55008;47.514;19.218;2022-07-23T08:00:29;32.72;37.26
68189;DHT22;55008;47.514;19.218;2022-07-23T08:02:59;32.79;35.85
68189;DHT22;55008;47.514;19.218;2022-07-23T08:05:30;32.90;36.92
68189;DHT22;55008;47.514;19.218;2022-07-23T08:07:59;33.05;36.27
68189;DHT22;55008;47.514;19.218;2022-07-23T08:10:31;33.13;35.92
68189;DHT22;55008;47.514;19.218;2022-07-23T08:12:59;33.30;36.08
68189;DHT22;55008;47.514;19.218;2022-07-23T08:15:29;33.42;36.06
68189;DHT22;55008;47.514;19.218;2022-07-23T08:18:05;33.58;35.99
68189;DHT22;55008;47.514;19.218;2022-07-23T08:20:36;33.74;34.64
68189;DHT22;55008;47.514;19.218;2022-07-23T08:23:07;33.84;34.08
68189;DHT22;55008;47.514;19.218;2022-07-23T08:25:40;33.84;34.70
68189;DHT22;55008;47.514;19.218;2022-07-23T08:28:13;33.90;33.39
68189;DHT22;55008;47.514;19.218;2022-07-23T08:30:45;34.08;33.69
68189;DHT22;55008;47.514;19.218;2022-07-23T08:33:16;34.22;33.21
68189;DHT22;55008;47.514;19.218;2022-07-23T08:35:59;34.25;34.45
68189;DHT22;55008;47.514;19.218;2022-07-23T08:38:29;34.36;33.76
68189;DHT22;55008;47.514;19.218;2022-07-23T08:40:59;34.45;34.11
68189;DHT22;55008;47.514;19.218;2022-07-23T08:43:29;34.59;33.52
68189;DHT22;55008;47.514;19.218;2022-07-23T08:46:00;34.62;33.35
68189;DHT22;55008;47.514;19.218;2022-07-23T08:48:30;34.82;34.34
68189;DHT22;55008;47.514;19.218;2022-07-23T08:51:00;34.86;32.27
68189;DHT22;55008;47.514;19.218;2022-07-23T08:53:30;35.06;32.38
68189;DHT22;55008;47.514;19.218;2022-07-23T08:56:02;35.11;33.68
68189;DHT22;55008;47.514;19.218;2022-07-23T08:58:31;35.27;32.08
68189;DHT22;55008;47.514;19.218;2022-07-23T09:01:00;35.37;32.05
68189;DHT22;55008;47.514;19.218;2022-07-23T09:03:31;35.56;32.36
68189;DHT22;55008;47.514;19.218;2022-07-23T09:06:02;35.65;31.05
68189;DHT22;55008;47.514;19.218;2022-07-23T09:08:35;35.58;30.43
68189;DHT22;55008;47.514;19.218;2022-07-23T09:11:08;35.68;30.52
68189;DHT22;55008;47.514;19.218;2022-07-23T09:13:38;35.90;30.95
68189;DHT22;55008;47.514;19.218;2022-07-23T09:16:10;35.78;30.57
68189;DHT22;55008;47.514;19.218;2022-07-23T09:18:42;35.72;30.92
68189;DHT22;55008;47.514;19.218;2022-07-23T09:21:14;35.86;31.07
68189;DHT22;55008;47.514;19.218;2022-07-23T09:23:44;36.09;30.58
68189;DHT22;55008;47.514;19.218;2022-07-23T09:26:25;36.17;29.68
68189;DHT22;55008;47.514;19.218;2022-07-23T09:29:04;36.17;31.83
68189;DHT22;55008;47.514;19.218;2022-07-23T09:31:45;36.26;30.57
68189;DHT22;55008;47.514;19.218;2022-07-23T09:34:16;36.50;31.87
68189;DHT22;55008;47.514;19.218;2022-07-23T09:36:46;36.66;30.40
68189;DHT22;55008;47.514;19.218;2022-07-23T09:39:16;36.68;30.42
68189;DHT22;55008;47.514;19.218;2022-07-23T09:41:55;36.80;30.22
68189;DHT22;55008;47.514;19.218;2022-07-23T09:44:24;37.03;30.39
68189;DHT22;55008;47.514;19.218;2022-07-23T09:46:57;36.84;29.13
68189;DHT22;55008;47.514;19.218;2022-07-23T09:49:26;37.05;30.25
68189;DHT22;55008;47.514;19.218;2022-07-23T09:51:58;37.11;29.97
68189;DHT22;55008;47.514;19.218;2022-07-23T09:54:30;37.32;29.89
68189;DHT22;55008;47.514;19.218;2022-07-23T09:57:05;37.33;28.78
68189;DHT22;55008;47.514;19.218;2022-07-23T09:59:37;37.33;28.45
68189;DHT22;55008;47.514;19.218;2022-07-23T10:02:07;37.33;28.65
68189;DHT22;55008;47.514;19.218;2022-07-23T10:04:36;37.14;28.79
68189;DHT22;55008;47.514;19.218;2022-07-23T10:07:07;37.03;29.26
68189;DHT22;55008;47.514;19.218;2022-07-23T10:09:40;37.18;29.45
68189;DHT22;55008;47.514;19.218;2022-07-23T10:12:13;37.55;29.15
68189;DHT22;55008;47.514;19.218;2022-07-23T10:15:00;37.57;29.10
68189;DHT22;55008;47.514;19.218;2022-07-23T10:17:29;37.55;28.44
68189;DHT22;55008;47.514;19.218;2022-07-23T10:19:57;37.67;28.47
68189;DHT22;55008;47.514;19.218;2022-07-23T10:22:28;37.72;28.39
68189;DHT22;55008;47.514;19.218;2022-07-23T10:25:08;37.98;28.09
68189;DHT22;55008;47.514;19.218;2022-07-23T10:27:53;37.97;28.31
68189;DHT22;55008;47.514;19.218;2022-07-23T10:30:30;38.15;27.70
68189;DHT22;55008;47.514;19.218;2022-07-23T10:33:15;38.05;27.49
68189;DHT22;55008;47.514;19.218;2022-07-23T10:35:49;38.07;27.81
68189;DHT22;55008;47.514;19.218;2022-07-23T10:38:24;38.01;26.73
68189;DHT22;55008;47.514;19.218;2022-07-23T10:40:56;37.74;26.73
68189;DHT22;55008;47.514;19.218;2022-07-23T10:43:27;37.74;27.39
68189;DHT22;55008;47.514;19.218;2022-07-23T10:46:23;37.70;26.27
68189;DHT22;55008;47.514;19.218;2022-07-23T10:49:21;37.94;26.93
68189;DHT22;55008;47.514;19.218;2022-07-23T10:52:18;37.98;26.29
68189;DHT22;55008;47.514;19.218;2022-07-23T10:54:48;37.74;26.80
68189;DHT22;55008;47.514;19.218;2022-07-23T10:57:20;37.85;26.84
68189;DHT22;55008;47.514;19.218;2022-07-23T11:00:23;37.83;26.76
68189;DHT22;55008;47.514;19.218;2022-07-23T11:02:53;38.32;26.95
68189;DHT22;55008;47.514;19.218;2022-07-23T11:05:24;38.52;26.31
68189;DHT22;55008;47.514;19.218;2022-07-23T11:08:15;38.39;26.09
68189;DHT22;55008;47.514;19.218;2022-07-23T11:10:48;38.33;26.52
68189;DHT22;55008;47.514;19.218;2022-07-23T11:13:46;38.68;27.60
68189;DHT22;55008;47.514;19.218;2022-07-23T11:16:22;38.78;25.66
68189;DHT22;55008;47.514;19.218;2022-07-23T11:19:05;39.02;26.95
68189;DHT22;55008;47.514;19.218;2022-07-23T11:21:46;38.92;25.84
68189;DHT22;55008;47.514;19.218;2022-07-23T11:24:19;39.06;26.43
68189;DHT22;55008;47.514;19.218;2022-07-23T11:27:03;39.28;25.52
68189;DHT22;55008;47.514;19.218;2022-07-23T11:29:53;39.41;25.54
68189;DHT22;55008;47.514;19.218;2022-07-23T11:32:32;39.26;25.46
68189;DHT22;55008;47.514;19.218;2022-07-23T11:35:05;39.44;25.10
68189;DHT22;55008;47.514;19.218;2022-07-23T11:37:47;39.50;25.82
68189;DHT22;55008;47.514;19.218;2022-07-23T11:40:16;39.60;24.88
68189;DHT22;55008;47.514;19.218;2022-07-23T11:42:53;40.05;25.38
68189;DHT22;55008;47.514;19.218;2022-07-23T11:45:23;40.05;26.11
68189;DHT22;55008;47.514;19.218;2022-07-23T11:47:53;39.48;25.32
68189;DHT22;55008;47.514;19.218;2022-07-23T11:50:23;39.44;26.00
68189;DHT22;55008;47.514;19.218;2022-07-23T11:52:54;39.45;25.41
68189;DHT22;55008;47.514;19.218;2022-07-23T11:55:23;39.53;25.85
68189;DHT22;55008;47.514;19.218;2022-07-23T11:57:52;39.38;26.48
68189;DHT22;55008;47.514;19.218;2022-07-23T12:00:25;39.47;25.32
68189;DHT22;55008;47.514;19.218;2022-07-23T12:02:56;39.68;25.80
68189;DHT22;55008;47.514;19.218;2022-07-23T12:05:30;39.74;26.03
68189;DHT22;55008;47.514;19.218;2022-07-23T12:08:01;39.82;25.51
68189;DHT22;55008;47.514;19.218;2022-07-23T12:10:35;40.28;25.92
68189;DHT22;55008;47.514;19.218;2022-07-23T12:13:07;40.44;25.10
68189;DHT22;55008;47.514;19.218;2022-07-23T12:15:43;40.66;24.71
68189;DHT22;55008;47.514;19.218;2022-07-23T12:18:16;41.02;23.57
68189;DHT22;55008;47.514;19.218;2022-07-23T12:20:45;41.19;23.41
68189;DHT22;55008;47.514;19.218;2022-07-23T12:23:17;40.73;23.40
68189;DHT22;55008;47.514;19.218;2022-07-23T12:25:53;41.05;22.91
68189;DHT22;55008;47.514;19.218;2022-07-23T12:28:27;41.72;23.20
68189;DHT22;55008;47.514;19.218;2022-07-23T12:30:56;41.43;22.96
68189;DHT22;55008;47.514;19.218;2022-07-23T12:33:28;41.04;22.23
68189;DHT22;55008;47.514;19.218;2022-07-23T12:36:03;41.74;22.51
68189;DHT22;55008;47.514;19.218;2022-07-23T12:38:37;41.47;23.48
68189;DHT22;55008;47.514;19.218;2022-07-23T12:41:05;41.04;24.06
68189;DHT22;55008;47.514;19.218;2022-07-23T12:43:36;41.25;23.97
68189;DHT22;55008;47.514;19.218;2022-07-23T12:46:08;41.21;23.37
68189;DHT22;55008;47.514;19.218;2022-07-23T12:48:39;41.32;23.28
68189;DHT22;55008;47.514;19.218;2022-07-23T12:51:25;41.50;23.03
68189;DHT22;55008;47.514;19.218;2022-07-23T12:53:57;41.35;22.99
68189;DHT22;55008;47.514;19.218;2022-07-23T12:56:27;41.55;24.20
68189;DHT22;55008;47.514;19.218;2022-07-23T12:58:58;41.46;22.87
68189;DHT22;55008;47.514;19.218;2022-07-23T13:01:31;40.44;23.59
68189;DHT22;55008;47.514;19.218;2022-07-23T13:04:12;39.91;24.09
68189;DHT22;55008;47.514;19.218;2022-07-23T13:06:43;39.48;25.43
68189;DHT22;55008;47.514;19.218;2022-07-23T13:09:17;39.44;24.99
68189;DHT22;55008;47.514;19.218;2022-07-23T13:11:48;39.58;24.15
68189;DHT22;55008;47.514;19.218;2022-07-23T13:14:18;39.45;24.69
68189;DHT22;55008;47.514;19.218;2022-07-23T13:16:47;39.21;24.72
68189;DHT22;55008;47.514;19.218;2022-07-23T13:19:19;39.23;25.47
68189;DHT22;55008;47.514;19.218;2022-07-23T13:21:51;39.20;25.34
68189;DHT22;55008;47.514;19.218;2022-07-23T13:24:22;39.26;25.67
68189;DHT22;55008;47.514;19.218;2022-07-23T13:26:50;39.37;25.07
68189;DHT22;55008;47.514;19.218;2022-07-23T13:29:19;39.06;24.30
68189;DHT22;55008;47.514;19.218;2022-07-23T13:31:48;38.78;24.45
68189;DHT22;55008;47.514;19.218;2022-07-23T13:34:21;39.02;25.09
68189;DHT22;55008;47.514;19.218;2022-07-23T13:36:55;38.99;23.58
68189;DHT22;55008;47.514;19.218;2022-07-23T13:39:27;39.03;24.12
68189;DHT22;55008;47.514;19.218;2022-07-23T13:42:04;39.06;24.50
68189;DHT22;55008;47.514;19.218;2022-07-23T13:44:35;38.97;24.56
68189;DHT22;55008;47.514;19.218;2022-07-23T13:47:03;39.04;25.05
68189;DHT22;55008;47.514;19.218;2022-07-23T13:49:38;39.06;25.55
68189;DHT22;55008;47.514;19.218;2022-07-23T13:52:08;39.16;25.27
68189;DHT22;55008;47.514;19.218;2022-07-23T13:54:40;38.96;24.30
68189;DHT22;55008;47.514;19.218;2022-07-23T13:57:10;39.09;26.49
68189;DHT22;55008;47.514;19.218;2022-07-23T13:59:42;39.14;24.39
68189;DHT22;55008;47.514;19.218;2022-07-23T14:02:13;39.03;23.92
68189;DHT22;55008;47.514;19.218;2022-07-23T14:04:50;38.99;24.01
68189;DHT22;55008;47.514;19.218;2022-07-23T14:07:21;39.07;23.64
68189;DHT22;55008;47.514;19.218;2022-07-23T14:09:52;39.07;23.88
68189;DHT22;55008;47.514;19.218;2022-07-23T14:12:22;39.09;24.03
68189;DHT22;55008;47.514;19.218;2022-07-23T14:15:01;39.07;23.96
68189;DHT22;55008;47.514;19.218;2022-07-23T14:17:41;39.02;23.97
68189;DHT22;55008;47.514;19.218;2022-07-23T14:20:14;38.79;24.27
68189;DHT22;55008;47.514;19.218;2022-07-23T14:22:47;38.68;24.70
68189;DHT22;55008;47.514;19.218;2022-07-23T14:25:18;38.76;24.37
68189;DHT22;55008;47.514;19.218;2022-07-23T14:27:49;38.70;23.43
68189;DHT22;55008;47.514;19.218;2022-07-23T14:30:19;38.62;24.50
68189;DHT22;55008;47.514;19.218;2022-07-23T14:33:01;38.53;23.78
68189;DHT22;55008;47.514;19.218;2022-07-23T14:35:33;38.61;24.84
68189;DHT22;55008;47.514;19.218;2022-07-23T14:38:04;38.42;24.30
68189;DHT22;55008;47.514;19.218;2022-07-23T14:40:35;38.48;24.78
68189;DHT22;55008;47.514;19.218;2022-07-23T14:43:05;38.48;25.10
68189;DHT22;55008;47.514;19.218;2022-07-23T14:45:43;38.49;24.85
68189;DHT22;55008;47.514;19.218;2022-07-23T14:48:16;38.59;25.70
68189;DHT22;55008;47.514;19.218;2022-07-23T14:50:50;38.63;25.35
68189;DHT22;55008;47.514;19.218;2022-07-23T14:53:19;38.41;25.18
68189;DHT22;55008;47.514;19.218;2022-07-23T14:55:53;38.01;25.75
68189;DHT22;55008;47.514;19.218;2022-07-23T14:58:26;37.76;26.23
68189;DHT22;55008;47.514;19.218;2022-07-23T15:00:58;37.32;26.55
68189;DHT22;55008;47.514;19.218;2022-07-23T15:03:29;37.15;27.35
68189;DHT22;55008;47.514;19.218;2022-07-23T15:06:09;36.94;26.88
68189;DHT22;55008;47.514;19.218;2022-07-23T15:08:39;36.81;26.98
68189;DHT22;55008;47.514;19.218;2022-07-23T15:11:09;36.66;27.14
68189;DHT22;55008;47.514;19.218;2022-07-23T15:13:38;36.70;27.24
68189;DHT22;55008;47.514;19.218;2022-07-23T15:16:11;36.58;27.44
68189;DHT22;55008;47.514;19.218;2022-07-23T15:18:41;36.54;27.52
68189;DHT22;55008;47.514;19.218;2022-07-23T15:21:14;36.41;27.40
68189;DHT22;55008;47.514;19.218;2022-07-23T15:23:50;36.22;28.79
68189;DHT22;55008;47.514;19.218;2022-07-23T15:26:21;36.12;29.01
68189;DHT22;55008;47.514;19.218;2022-07-23T15:28:51;35.97;28.88
68189;DHT22;55008;47.514;19.218;2022-07-23T15:31:22;35.81;28.84
68189;DHT22;55008;47.514;19.218;2022-07-23T15:33:56;35.68;29.87
68189;DHT22;55008;47.514;19.218;2022-07-23T15:36:28;35.54;28.54
68189;DHT22;55008;47.514;19.218;2022-07-23T15:38:58;35.49;29.40
68189;DHT22;55008;47.514;19.218;2022-07-23T15:41:29;35.45;27.73